Cashiers, NC

6:54 AM EST on February 25, 2017 (GMT -0500)
Cashiers Permit Center | | Change Station

Elev 3537 ft 35.11 °N, 83.10 °W | Updated 5 seconds ago

Mostly Cloudy
Mostly Cloudy
54.0 °F
Feels Like 54.0 °F
N
3.0
Wind Variable Wind from West

Today
High -- | Low -- °F
--% Chance of Precip.
Yesterday
High -- | Low -- °F
Precip. -- in
Pressure 29.73 in
Visibility 7.0 miles
Clouds Scattered Clouds 3100 ft
Mostly Cloudy 4000 ft
Overcast 6500 ft
Dew Point 50 °F
Humidity 86%
Rainfall 0.00 in
Snow Depth Not available.
7:06 AM 6:24 PM
Waning Crescent, 2% visible
METAR K1A5 251130Z AUTO 27011G16KT 7SM RA SCT031 BKN040 OVC065 14/12 A2973 RMK AO2 P0001 T01430120
Pressure 29.73 in
Visibility 7.0 miles
Clouds Scattered Clouds 3100 ft
Mostly Cloudy 4000 ft
Overcast 6500 ft
Dew Point 50 °F
Humidity 86%
Rainfall 0.00 in
Snow Depth Not available.
7:06 AM 6:24 PM
Waning Crescent, 2% visible
METAR K1A5 251130Z AUTO 27011G16KT 7SM RA SCT031 BKN040 OVC065 14/12 A2973 RMK AO2 P0001 T01430120

Get Your Daily Forecast Email!

Thanks for signing up!

Be on the lookout for a verification email in your inbox.

You'll start receiving the daily forecast at 8 AM.

×

10-Day Weather Forecast

Almanac

Astronomy

Feb. 25, 2017 Rise Set
Actual Time
Civil Twilight
Nautical Twilight
Astronomical Twilight
Moon
Length of Visible Light
Length of Day
Tomorrow will be .
, % of the Moon is Illuminated

Today's Extremes

State Highs State Lows

Community

WunderPhotos

Upload Photos

1,962,540 photos uploaded!

WunderBlog® & News

Nearby

Air Quality

  Air Quality AQ Index Pollutant
Not available.

Snow Depth

Station Depth Elevation

Earthquake Activity

City Distance Mag. Time & Date
Minimum magnitude displayed is 2.5.

Coastal Water Temperatures

Place Temperature

Stations

Nearby Weather Stations

Station Location Temp. Windchill Dew Point Humidity Wind Precip. Elev Updated Type
                   

Watches & Warnings

There are currently no watches in effect.